Vilonia, AR (72173)

10:35 AM CDT on August 30, 2014 (GMT -0500)
North Magness Creek Village | Change Station
CLOSE
Current Station
Personal Weather Station
Location: Cabot, AR
Elevation: 309 ft
Nearby Weather Stations

Elev 309 ft 35.04 °N, 92.06 °W | Updated 1 second ago

Mostly Cloudy
Mostly Cloudy
80.7 °F
Feels Like 86 °F
N
0.0
Wind Variable Wind from South
Gusts 0.0 mph

Today
High -- | Low -- °F
--% Chance of Precip.
Yesterday
High -- | Low -- °F
Precip. -- in
6:39 AM 7:38 PM
Waxing Crescent, 22% visible
Pressure 30.02 in
Visibility 10.0 miles
Clouds Clear
Heat Index 86 °F
Dew Point 74 °F
Humidity 79%
Rainfall 0.00 in
Snow Depth Not available.
UV 5 out of 12
Pollen 6.60 out of 12
Air Quality Not available.
Flu Activity Not available.
METAR KLRF 301458Z AUTO 18004KT 10SM CLR 26/23 A3002 RMK AO2 SLP166 T02550227 53005

More Conditions Fewer Conditions

Pressure 30.02 in
Visibility 10.0 miles
Clouds Clear
Heat Index 86 °F
Dew Point 74 °F
Humidity 79%
Rainfall 0.00 in
Snow Depth Not available.
UV 5 out of 12
Pollen 6.60 out of 12
Air Quality Not available.
Flu Activity Not available.
METAR KLRF 301458Z AUTO 18004KT 10SM CLR 26/23 A3002 RMK AO2 SLP166 T02550227 53005

More Conditions Fewer Conditions

10-Day Weather Forecast

Almanac

Astronomy

Aug. 30, 2014 Rise Set
Actual Time 6:39 AM CDT 7:38 PM CDT
Civil Twilight 6:13 AM CDT 8:04 PM CDT
Nautical Twilight 5:43 AM CDT 8:34 PM CDT
Astronomical Twilight 5:11 AM CDT 9:06 PM CDT
Moon 11:15 AM CDT 10:25 PM CDT
Length of Visible Light 13h 50m
Length of Day
12h 58m
Tomorrow will be 2m 6s shorter.
Waxing Crescent, 22% of the Moon is Illuminated
Today
Waxing Crescent
Sep 2
First Quarter
Sep 8
Full
Sep 15
Last Quarter
Sep 24
New

Today's Extremes

State Highs State Lows

Community

WunderPhotos

Upload Photos

1,748,551 photos uploaded!

WunderBlogs® & News

Nearby

Snow Depth

Station Depth Elevation
No new snow has been reported.

Earthquake Activity

City Distance Mag. Time & Date
No recent earthquake activity has been reported nearby.
Minimum magnitude displayed is 2.5.

Coastal Water Temperatures

Place Temperature
No Stations Reporting

Nearby Weather Stations